CheckWX is a tool to help pilots better visualize weather data.  It is not intended as a substitute for an official pre-flight weather briefing.

16:17:16 UTC

SLET TAF
El Trompillo Airport
Santa Cruz, Bolivia
TAF SLET 241050Z 2412/2512 32015KT 9999 NSC TX30/2419Z TN22/2511Z BECMG 2415/2418 32020G38KT SCT020 BECMG 2421/2423 32015KT NSC FM250300 32015G28KT

Jun-24@
12:00 UTC

Jun-24 @ 12:00 UTC

Jun-24@
15:00 UTC

Jun-24 @ 15:00 UTC

TAF SLET 241050Z 2412/2512 32015KT 9999 NSC TX30/2419Z TN22/2511Z

Expired

Wind
  • 320° at 15 KTS
Cloud Levels
  • No significant clouds

Jun-24@
15:00 UTC

Jun-24 @ 15:00 UTC

Jun-24@
21:00 UTC

Jun-24 @ 21:00 UTC

BECMG 2415/2418 32020G38KT SCT020

Becoming

Becoming Conditions expected by Mon, Jun 24, 2019 @ 18:00 UTC

Wind
  • 320° at 20 KTS
  • {Gusting to 38 KTS
Cloud Levels
  • Scattered at 2,000' AGL

Jun-24@
21:00 UTC

Jun-24 @ 21:00 UTC

Jun-25@
03:00 UTC

Jun-25 @ 03:00 UTC

BECMG 2421/2423 32015KT NSC

Becoming

Becoming Conditions expected by Mon, Jun 24, 2019 @ 23:00 UTC

Wind
  • 320° at 15 KTS
Cloud Levels
  • No significant clouds

Jun-25@
03:00 UTC

Jun-25 @ 03:00 UTC

Jun-25@
12:00 UTC

Jun-25 @ 12:00 UTC

FM250300 32015G28KT

From

From Standard forecast or significant change

Wind
  • 320° at 15 KTS
  • {Gusting to 28 KTS